»·PEaware :: ROPER71 KLSV-KLSV

ROPER71 :: KLSV-KLSV

FLIGHT INFORMATION

Flight Status: Arrived
Operator: Unknown
More flights by this operator :: More flights under this callsign
Pilot: Anonymous 3903 (3903)
Aircraft: NORTHROP F-5 FREEDON FIGHTER
(F5)
More flights by this aircraft type
Origin: KLSV Nellis AFB
United States
Destination: KLSV Nellis AFB
United States
More flights between these airports :: More routes between these airports
Route: +LSV
File this flight plan on PilotEdge
Remarks: Multi Apps / / Custom IFR WX
Altitude:
(Current/Filed)
16,000ft
Speed:
(Current/Filed)
350kts
Departed: 20-Dec-18 07:31 PM
Arrived: 20-Dec-18 08:49 PM
Distance/Time
Traveled:
0nm/1:17
Distance/Time
To Go:
Arrived

Flight Plot

Page will automatically refresh every two minutes.

Flight plan parsing failed; only flown route is shown


Map Options




Map Legend


Flown Route
Filed Route
Departure Airport
Arrival Airport
Navaid (VOR, NDB)
Fix

Horizontal Profiles

Position Reports

Time Latitude Longitude Heading Altitude Ground
Speed
20-Dec-18 19:21 36.230639 -115.047275 220 1853ft 0kts
20-Dec-18 19:22 36.230639 -115.047275 220 1853ft 0kts
20-Dec-18 19:23 36.230639 -115.047275 220 1853ft 0kts
20-Dec-18 19:24 36.230639 -115.047275 220 1853ft 0kts
20-Dec-18 19:25 36.230639 -115.047275 220 1853ft 0kts
20-Dec-18 19:26 36.229434 -115.046314 164 1851ft 11kts
20-Dec-18 19:27 36.227237 -115.047694 130 1848ft 0kts
20-Dec-18 19:28 36.227237 -115.047694 130 1848ft 0kts
20-Dec-18 19:29 36.226799 -115.046646 46 1846ft 9kts
20-Dec-18 19:30 36.231359 -115.041725 38 1849ft 162kts
20-Dec-18 19:31 36.286882 -114.979247 39 6090ft 288kts
20-Dec-18 19:32 36.346921 -114.903507 34 11122ft 314kts
20-Dec-18 19:33 36.436886 -114.894047 343 14579ft 326kts
20-Dec-18 19:34 36.523567 -114.921066 342 15109ft 321kts
20-Dec-18 19:35 36.612579 -114.933368 8 15187ft 330kts
20-Dec-18 19:36 36.703415 -114.907540 4 15145ft 332kts
20-Dec-18 19:37 36.781826 -114.857619 52 15125ft 336kts
20-Dec-18 19:38 36.831496 -114.758476 37 15097ft 332kts
20-Dec-18 19:39 36.899094 -114.782569 275 15140ft 324kts
20-Dec-18 19:40 36.837133 -114.864273 197 15075ft 328kts
20-Dec-18 19:41 36.749444 -114.893916 196 15108ft 329kts
20-Dec-18 19:42 36.660543 -114.923876 196 15110ft 333kts
20-Dec-18 19:43 36.589592 -114.877695 108 12900ft 327kts
20-Dec-18 19:44 36.552756 -114.781236 123 11053ft 302kts
20-Dec-18 19:45 36.481303 -114.770599 209 8843ft 277kts
20-Dec-18 19:46 36.420538 -114.822394 226 7322ft 267kts
20-Dec-18 19:47 36.366244 -114.883679 230 6092ft 257kts
20-Dec-18 19:48 36.313827 -114.944498 219 4387ft 237kts
20-Dec-18 19:49 36.273740 -114.992076 219 2517ft 168kts
20-Dec-18 19:50 36.236781 -115.035112 224 4329ft 204kts
20-Dec-18 19:51 36.223511 -115.106812 310 8211ft 247kts
20-Dec-18 19:52 36.292386 -115.100101 29 12302ft 292kts
20-Dec-18 19:53 36.364427 -115.123318 313 14597ft 314kts
20-Dec-18 19:54 36.432991 -115.200445 315 15127ft 327kts
20-Dec-18 19:55 36.499066 -115.273531 317 15101ft 309kts
20-Dec-18 19:56 36.532291 -115.359251 251 15093ft 307kts
20-Dec-18 19:57 36.502014 -115.456655 249 15118ft 297kts
20-Dec-18 19:58 36.473689 -115.551649 249 15112ft 287kts
20-Dec-18 19:59 36.401888 -115.555326 123 15153ft 363kts
20-Dec-18 20:00 36.394599 -115.438301 99 15125ft 332kts
20-Dec-18 20:01 36.359730 -115.336627 114 15116ft 326kts
20-Dec-18 20:02 36.360260 -115.233919 38 13673ft 312kts
20-Dec-18 20:03 36.419791 -115.164822 50 12389ft 279kts
20-Dec-18 20:04 36.447829 -115.075302 76 10882ft 278kts
20-Dec-18 20:05 36.449818 -114.979889 102 9526ft 271kts
20-Dec-18 20:06 36.421383 -114.894311 120 8045ft 266kts
20-Dec-18 20:07 36.363000 -114.889116 222 5510ft 221kts
20-Dec-18 20:08 36.321135 -114.936411 229 4531ft 182kts
20-Dec-18 20:09 36.286263 -114.976376 225 3292ft 162kts
20-Dec-18 20:10 36.252804 -115.015004 224 3058ft 174kts
20-Dec-18 20:11 36.212860 -115.063550 240 6664ft 224kts
20-Dec-18 20:12 36.243614 -115.119940 353 9946ft 272kts
20-Dec-18 20:13 36.323265 -115.088305 344 12479ft 345kts
20-Dec-18 20:14 36.361836 -115.181398 244 13086ft 339kts
20-Dec-18 20:15 36.280479 -115.218071 181 13079ft 325kts
20-Dec-18 20:16 36.192828 -115.217771 183 13074ft 304kts
20-Dec-18 20:17 36.108985 -115.217543 183 13060ft 298kts
20-Dec-18 20:18 36.034941 -115.250146 218 13128ft 294kts
20-Dec-18 20:19 35.966297 -115.304660 180 13073ft 303kts
20-Dec-18 20:20 35.881745 -115.296913 176 13121ft 305kts
20-Dec-18 20:21 35.838380 -115.354135 296 12213ft 276kts
20-Dec-18 20:22 35.907649 -115.373322 16 11119ft 282kts
20-Dec-18 20:23 35.972374 -115.314554 36 10250ft 295kts
20-Dec-18 20:24 36.031022 -115.251645 37 9063ft 268kts
20-Dec-18 20:25 36.088942 -115.194706 29 7120ft 253kts
20-Dec-18 20:26 36.141112 -115.140004 45 4866ft 251kts
20-Dec-18 20:27 36.191337 -115.082169 39 2908ft 216kts
20-Dec-18 20:28 36.239390 -115.027888 40 3726ft 263kts
20-Dec-18 20:29 36.298031 -114.956475 39 6303ft 299kts
20-Dec-18 20:30 36.359985 -114.882453 40 8004ft 307kts
20-Dec-18 20:31 36.420049 -114.809900 42 9140ft 299kts
20-Dec-18 20:32 36.477555 -114.739204 43 9072ft 283kts
20-Dec-18 20:33 36.528854 -114.666700 40 9057ft 276kts
20-Dec-18 20:34 36.589531 -114.627468 315 9083ft 264kts
20-Dec-18 20:35 36.571739 -114.702865 201 9120ft 288kts
20-Dec-18 20:36 36.499330 -114.732226 212 9086ft 260kts
20-Dec-18 20:37 36.443609 -114.787911 223 8494ft 259kts
20-Dec-18 20:38 36.393955 -114.853523 227 7241ft 255kts
20-Dec-18 20:39 36.344863 -114.907165 222 5356ft 225kts
20-Dec-18 20:40 36.308202 -114.951091 228 3387ft 156kts
20-Dec-18 20:41 36.278158 -114.986298 225 2590ft 148kts
20-Dec-18 20:43 36.244544 -115.023260 221 2498ft 167kts
20-Dec-18 20:44 36.268119 -115.033336 49 2613ft 206kts
20-Dec-18 20:45 36.277820 -114.983456 194 2577ft 197kts
20-Dec-18 20:46 36.247139 -115.024548 222 1923ft 158kts
20-Dec-18 20:47 36.267008 -115.038337 41 2760ft 219kts
20-Dec-18 20:48 36.253583 -115.017438 223 2021ft 146kts
20-Dec-18 20:49 36.235042 -115.037713 219 1853ft 27kts
20-Dec-18 20:50 36.234908 -115.039554 309 1856ft 0kts
20-Dec-18 20:51 36.233858 -115.041822 308 1855ft 13kts
20-Dec-18 20:52 36.234421 -115.043137 220 1854ft 0kts
20-Dec-18 20:53 36.234421 -115.043137 220 1854ft 0kts
20-Dec-18 20:54 36.234421 -115.043137 220 1854ft 0kts
20-Dec-18 20:55 36.234421 -115.043137 220 1854ft 0kts
20-Dec-18 20:56 36.234421 -115.043137 220 1854ft 0kts
20-Dec-18 20:57 36.234421 -115.043137 220 1854ft 0kts
20-Dec-18 20:58 36.234421 -115.043137 220 1854ft 0kts
20-Dec-18 20:59 36.234421 -115.043137 220 1854ft 0kts
20-Dec-18 21:00 36.234421 -115.043137 220 1854ft 0kts
20-Dec-18 21:01 36.234421 -115.043137 220 1854ft 0kts
20-Dec-18 21:02 36.234421 -115.043137 220 1854ft 0kts
20-Dec-18 21:03 36.234421 -115.043137 220 1854ft 0kts

Navigation Log

Ident Type
Flight plan parsing failed, navigation log unavailable